createdAt,value
2024-04-11T00:03:35.827Z,10.91
2024-04-11T00:08:38.676Z,10.74
2024-04-11T00:13:40.762Z,10.72
2024-04-11T00:18:42.671Z,10.80
2024-04-11T00:23:48.840Z,10.79
2024-04-11T00:28:50.962Z,10.79
2024-04-11T00:33:57.110Z,10.82
2024-04-11T00:38:59.877Z,10.70
2024-04-11T00:44:01.991Z,10.56
2024-04-11T00:49:04.222Z,10.51
2024-04-11T00:54:07.005Z,10.41
2024-04-11T00:59:11.017Z,10.26
2024-04-11T01:04:13.086Z,10.13
2024-04-11T01:09:21.017Z,10.09
2024-04-11T01:14:22.936Z,9.97
2024-04-11T01:19:28.187Z,9.91
2024-04-11T01:24:30.022Z,9.88
2024-04-11T01:29:31.975Z,9.80
2024-04-11T01:34:34.104Z,9.79
2024-04-11T01:39:38.575Z,9.77
2024-04-11T01:44:40.621Z,9.70
2024-04-11T01:49:44.393Z,9.68
2024-04-11T01:54:46.248Z,9.70
2024-04-11T01:59:48.189Z,9.70
2024-04-11T02:04:50.155Z,9.58
2024-04-11T02:09:53.148Z,9.52
2024-04-11T02:14:56.765Z,9.44
2024-04-11T02:20:00.512Z,9.47
2024-04-11T02:25:02.493Z,9.47
2024-04-11T02:30:06.892Z,9.52
2024-04-11T02:35:12.150Z,9.72
2024-04-11T02:40:13.969Z,9.81
2024-04-11T02:45:19.511Z,9.79
2024-04-11T02:50:25.541Z,9.78
2024-04-11T02:55:30.259Z,9.82
2024-04-11T03:00:32.151Z,9.82
2024-04-11T03:05:36.384Z,9.79
2024-04-11T03:10:43.428Z,9.91
2024-04-11T03:15:47.176Z,10.03
2024-04-11T03:21:00.206Z,10.09
2024-04-11T03:26:02.355Z,10.09
2024-04-11T03:31:06.968Z,10.01
2024-04-11T03:36:14.616Z,9.94
2024-04-11T03:41:18.274Z,9.88
2024-04-11T03:46:22.602Z,9.83
2024-04-11T03:51:31.354Z,9.74
2024-04-11T03:56:33.491Z,9.58
2024-04-11T04:01:35.679Z,9.52
2024-04-11T04:06:37.683Z,9.53
2024-04-11T04:11:43.359Z,9.51
2024-04-11T04:16:47.910Z,9.57
2024-04-11T04:21:50.322Z,9.71
2024-04-11T04:26:53.328Z,9.77
2024-04-11T04:31:55.456Z,9.83
2024-04-11T04:36:58.450Z,9.99
2024-04-11T04:42:01.030Z,10.14
2024-04-11T04:47:05.180Z,10.26
2024-04-11T04:52:08.020Z,10.36
2024-04-11T04:57:13.524Z,10.41
2024-04-11T05:02:16.276Z,10.44
2024-04-11T05:07:21.490Z,10.53
2024-04-11T05:12:24.809Z,10.59
2024-04-11T05:17:28.039Z,10.70
2024-04-11T05:22:30.728Z,10.82
2024-04-11T05:27:39.212Z,11.01
2024-04-11T05:32:43.235Z,11.28
2024-04-11T05:37:48.623Z,11.59
2024-04-11T05:42:50.575Z,11.94
2024-04-11T05:47:53.499Z,12.21
2024-04-11T05:52:56.049Z,12.46
2024-04-11T05:57:58.230Z,12.77
2024-04-11T06:03:09.758Z,13.05
2024-04-11T06:08:12.097Z,13.35
2024-04-11T06:13:14.091Z,13.56
2024-04-11T06:18:16.666Z,13.77
2024-04-11T06:23:18.990Z,14.02
2024-04-11T06:28:21.241Z,14.31
2024-04-11T06:33:23.645Z,14.57
2024-04-11T06:38:26.111Z,14.78
2024-04-11T06:43:27.995Z,14.98
2024-04-11T06:48:30.874Z,15.07
2024-04-11T06:53:32.773Z,15.25
2024-04-11T06:58:38.346Z,15.45
2024-04-11T07:03:42.495Z,15.66
2024-04-11T07:08:45.043Z,15.83
2024-04-11T07:13:51.211Z,15.97
2024-04-11T07:18:59.399Z,16.13
2024-04-11T07:24:05.164Z,16.46
2024-04-11T07:29:10.088Z,16.71
2024-04-11T07:34:13.148Z,16.84
2024-04-11T07:39:18.414Z,17.04
2024-04-11T07:44:25.286Z,17.15
2024-04-11T07:49:28.160Z,17.12
2024-04-11T07:54:37.982Z,17.32
2024-04-11T07:59:47.915Z,17.48
2024-04-11T08:04:49.991Z,17.53
2024-04-11T08:09:57.460Z,17.94
2024-04-11T08:14:59.721Z,18.20
2024-04-11T08:20:01.649Z,18.48
2024-04-11T08:25:03.889Z,18.55
2024-04-11T08:30:07.462Z,18.68
2024-04-11T08:35:09.595Z,18.74
2024-04-11T08:40:11.745Z,18.70
2024-04-11T08:45:14.721Z,18.75
2024-04-11T08:50:17.740Z,19.04
2024-04-11T08:55:20.569Z,19.27
2024-04-11T09:00:23.342Z,19.58
2024-04-11T09:05:25.247Z,19.45
2024-04-11T09:10:27.157Z,19.38
2024-04-11T09:15:30.243Z,19.19
2024-04-11T09:20:34.399Z,19.34
2024-04-11T09:25:36.295Z,19.66
2024-04-11T09:30:40.912Z,19.72
2024-04-11T09:35:48.439Z,19.95
2024-04-11T09:40:55.110Z,20.21
2024-04-11T09:46:05.289Z,19.98
2024-04-11T09:51:11.625Z,20.24
2024-04-11T09:56:19.394Z,20.47
2024-04-11T10:01:32.425Z,20.43
2024-04-11T10:06:37.462Z,20.05
2024-04-11T10:11:46.709Z,20.21
2024-04-11T10:16:49.916Z,20.41
2024-04-11T10:21:54.250Z,20.56
2024-04-11T10:27:12.143Z,20.43
2024-04-11T10:32:15.792Z,20.40
2024-04-11T10:37:25.050Z,20.34
2024-04-11T10:42:39.409Z,20.55
2024-04-11T10:47:43.551Z,20.50
2024-04-11T10:52:48.460Z,20.27
2024-04-11T10:58:10.312Z,20.56
2024-04-11T11:03:13.163Z,20.68
2024-04-11T11:08:15.874Z,20.70
2024-04-11T11:13:17.683Z,20.86
2024-04-11T11:18:21.868Z,21.37
2024-04-11T11:23:27.786Z,21.74
2024-04-11T11:28:29.646Z,21.65
2024-04-11T11:33:32.316Z,21.48
2024-04-11T11:38:35.067Z,21.82
2024-04-11T11:43:45.301Z,22.09
2024-04-11T11:48:48.337Z,22.22
2024-04-11T11:53:51.147Z,22.19
2024-04-11T11:58:53.092Z,21.80
2024-04-11T12:03:58.156Z,21.86
2024-04-11T12:09:12.687Z,21.75
2024-04-11T12:14:23.880Z,21.87
2024-04-11T12:19:29.980Z,21.88
2024-04-11T12:24:33.235Z,21.91
2024-04-11T12:29:35.107Z,21.89
2024-04-11T12:34:38.758Z,21.88
2024-04-11T12:39:46.968Z,21.97
2024-04-11T12:44:51.171Z,22.32
2024-04-11T12:49:59.653Z,22.36
2024-04-11T12:55:02.572Z,22.16
2024-04-11T13:00:31.556Z,22.18
2024-04-11T13:05:45.809Z,22.21
2024-04-11T13:10:51.315Z,22.27
2024-04-11T13:16:01.167Z,22.52
2024-04-11T13:21:05.179Z,22.56
2024-04-11T13:26:08.656Z,22.69
2024-04-11T13:31:12.506Z,22.82
2024-04-11T13:36:14.428Z,23.14
2024-04-11T13:41:34.816Z,23.08
2024-04-11T13:46:37.081Z,22.82
2024-04-11T13:51:46.235Z,22.57
2024-04-11T13:57:01.104Z,22.55
2024-04-11T14:02:10.958Z,22.52
2024-04-11T14:07:12.901Z,22.80
2024-04-11T14:12:18.242Z,23.14
2024-04-11T14:17:28.515Z,23.42
2024-04-11T14:22:31.456Z,23.46
2024-04-11T14:27:33.306Z,23.43
2024-04-11T14:32:53.918Z,23.22
2024-04-11T14:37:57.806Z,23.26
2024-04-11T14:43:02.305Z,23.28
2024-04-11T14:48:04.300Z,23.23
2024-04-11T14:53:07.475Z,23.19
2024-04-11T14:58:09.341Z,23.15
2024-04-11T15:03:17.166Z,23.01
2024-04-11T15:08:24.348Z,22.96
2024-04-11T15:13:26.271Z,23.02
2024-04-11T15:18:29.720Z,23.06
2024-04-11T15:23:31.700Z,23.02
2024-04-11T15:28:34.192Z,22.92
2024-04-11T15:33:36.058Z,22.73
2024-04-11T15:38:40.113Z,22.60
2024-04-11T15:43:43.741Z,22.48
2024-04-11T15:48:53.280Z,22.39
2024-04-11T15:54:03.018Z,22.26
2024-04-11T15:59:10.911Z,22.11
2024-04-11T16:04:17.854Z,22.16
2024-04-11T16:09:37.326Z,22.14
2024-04-11T16:14:44.876Z,22.14
2024-04-11T16:19:47.450Z,21.94
2024-04-11T16:24:53.320Z,21.85
2024-04-11T16:30:01.850Z,21.77
2024-04-11T16:35:04.977Z,21.72
2024-04-11T16:40:07.896Z,21.65
2024-04-11T16:45:09.819Z,21.64
2024-04-11T16:50:11.707Z,21.64
2024-04-11T16:55:28.019Z,21.63
2024-04-11T17:00:32.151Z,21.59
2024-04-11T17:05:42.057Z,21.54
2024-04-11T17:10:45.475Z,21.44
2024-04-11T17:16:16.141Z,21.40
2024-04-11T17:21:21.190Z,21.37
2024-04-11T17:26:23.005Z,21.32
2024-04-11T17:31:34.437Z,21.26
2024-04-11T17:36:37.798Z,21.16
2024-04-11T17:41:40.436Z,21.05
2024-04-11T17:47:02.174Z,20.93
2024-04-11T17:52:24.334Z,20.76
2024-04-11T17:57:26.160Z,20.67
2024-04-11T18:02:30.063Z,20.60
2024-04-11T18:07:33.607Z,20.49
2024-04-11T18:12:37.143Z,20.32
2024-04-11T18:17:39.540Z,20.23
2024-04-11T18:22:50.210Z,20.14
2024-04-11T18:27:53.229Z,19.97
2024-04-11T18:32:55.871Z,19.69
2024-04-11T18:38:01.638Z,19.58
2024-04-11T18:43:21.861Z,19.45
2024-04-11T18:48:39.100Z,19.36
2024-04-11T18:53:43.652Z,19.29
2024-04-11T18:58:46.842Z,19.20
2024-04-11T19:03:49.216Z,19.10
2024-04-11T19:08:51.462Z,18.94
2024-04-11T19:13:58.211Z,18.86
2024-04-11T19:19:00.798Z,18.83
2024-04-11T19:24:13.536Z,18.82
2024-04-11T19:29:22.875Z,18.75
2024-04-11T19:34:28.209Z,18.64
2024-04-11T19:39:30.287Z,18.56
2024-04-11T19:44:32.930Z,18.55
2024-04-11T19:49:40.007Z,18.57
2024-04-11T19:54:49.096Z,18.60
2024-04-11T19:59:52.932Z,18.63
2024-04-11T20:05:00.640Z,18.64
2024-04-11T20:10:04.830Z,18.68
2024-04-11T20:15:25.791Z,18.69
2024-04-11T20:20:32.224Z,18.72
2024-04-11T20:25:34.500Z,18.73
2024-04-11T20:30:38.086Z,18.68
2024-04-11T20:35:45.299Z,18.52
2024-04-11T20:40:47.630Z,18.37
2024-04-11T20:45:51.575Z,18.19
2024-04-11T20:51:12.113Z,17.82
2024-04-11T20:56:32.691Z,17.61
2024-04-11T21:01:53.012Z,17.43
2024-04-11T21:07:13.302Z,17.33
2024-04-11T21:12:33.789Z,17.26
2024-04-11T21:17:54.247Z,17.16
2024-04-11T21:23:14.611Z,16.91
2024-04-11T21:28:35.010Z,16.72
2024-04-11T21:33:39.848Z,16.75
2024-04-11T21:38:42.079Z,16.74
2024-04-11T21:43:44.669Z,16.68
2024-04-11T21:48:50.419Z,16.53
2024-04-11T21:54:00.126Z,16.30
2024-04-11T21:59:02.219Z,16.02
2024-04-11T22:04:08.592Z,16.13
2024-04-11T22:09:17.314Z,16.37
2024-04-11T22:14:41.904Z,16.38
2024-04-11T22:19:44.051Z,16.38
2024-04-11T22:24:55.972Z,16.38
2024-04-11T22:30:07.826Z,16.37
2024-04-11T22:35:12.629Z,16.36
2024-04-11T22:40:20.906Z,16.45
2024-04-11T22:45:27.387Z,16.52
2024-04-11T22:50:29.368Z,16.50
2024-04-11T22:55:31.202Z,16.41
2024-04-11T23:00:48.794Z,16.38
2024-04-11T23:05:55.295Z,16.37
2024-04-11T23:11:01.371Z,16.18
2024-04-11T23:16:06.761Z,15.73
2024-04-11T23:21:12.653Z,15.47
2024-04-11T23:26:16.140Z,15.40
2024-04-11T23:31:21.028Z,15.51
2024-04-11T23:36:25.924Z,15.63
2024-04-11T23:41:34.621Z,15.67
2024-04-11T23:46:41.947Z,15.63
2024-04-11T23:51:50.963Z,15.59
2024-04-11T23:57:04.397Z,15.51
